sensor_id;sensor_type;location;lat;lon;timestamp;pressure;altitude;pressure_sealevel;temperature;humidity
54512;BME280;40419;47.438;19.026;2022-09-09T00:00:51;99536.16;;;17.39;100.00
54512;BME280;40419;47.438;19.026;2022-09-09T00:03:32;99536.94;;;17.34;100.00
54512;BME280;40419;47.438;19.026;2022-09-09T00:06:21;99542.91;;;17.31;100.00
54512;BME280;40419;47.438;19.026;2022-09-09T00:09:04;99534.69;;;17.31;100.00
54512;BME280;40419;47.438;19.026;2022-09-09T00:17:33;99540.50;;;17.13;100.00
54512;BME280;40419;47.438;19.026;2022-09-09T00:20:11;99551.06;;;17.26;100.00
54512;BME280;40419;47.438;19.026;2022-09-09T00:22:43;99546.09;;;17.23;100.00
54512;BME280;40419;47.438;19.026;2022-09-09T00:25:23;99546.88;;;17.18;100.00
54512;BME280;40419;47.438;19.026;2022-09-09T00:27:52;99545.41;;;17.33;100.00
54512;BME280;40419;47.438;19.026;2022-09-09T00:30:23;99541.56;;;17.12;100.00
54512;BME280;40419;47.438;19.026;2022-09-09T00:32:53;99542.81;;;17.21;100.00
54512;BME280;40419;47.438;19.026;2022-09-09T00:35:33;99539.41;;;16.92;100.00
54512;BME280;40419;47.438;19.026;2022-09-09T00:38:31;99543.19;;;17.08;100.00
54512;BME280;40419;47.438;19.026;2022-09-09T00:41:20;99546.09;;;17.23;100.00
54512;BME280;40419;47.438;19.026;2022-09-09T00:44:00;99544.13;;;17.18;100.00
54512;BME280;40419;47.438;19.026;2022-09-09T01:02:52;99563.16;;;17.30;100.00
54512;BME280;40419;47.438;19.026;2022-09-09T01:05:33;99560.94;;;17.27;100.00
54512;BME280;40419;47.438;19.026;2022-09-09T01:08:05;99565.78;;;17.20;100.00
54512;BME280;40419;47.438;19.026;2022-09-09T01:10:48;99577.72;;;17.14;100.00
54512;BME280;40419;47.438;19.026;2022-09-09T01:13:27;99579.88;;;17.12;100.00
54512;BME280;40419;47.438;19.026;2022-09-09T01:15:59;99578.78;;;17.13;100.00
54512;BME280;40419;47.438;19.026;2022-09-09T01:18:30;99571.22;;;16.98;100.00
54512;BME280;40419;47.438;19.026;2022-09-09T01:26:43;99573.13;;;16.97;100.00
54512;BME280;40419;47.438;19.026;2022-09-09T01:29:21;99584.22;;;17.08;100.00
54512;BME280;40419;47.438;19.026;2022-09-09T01:31:56;99583.69;;;17.11;100.00
54512;BME280;40419;47.438;19.026;2022-09-09T01:34:26;99584.97;;;17.03;100.00
54512;BME280;40419;47.438;19.026;2022-09-09T01:37:02;99580.06;;;17.05;100.00
54512;BME280;40419;47.438;19.026;2022-09-09T01:39:37;99578.66;;;17.03;100.00
54512;BME280;40419;47.438;19.026;2022-09-09T01:42:14;99570.94;;;16.99;100.00
54512;BME280;40419;47.438;19.026;2022-09-09T01:44:47;99571.41;;;16.91;100.00
54512;BME280;40419;47.438;19.026;2022-09-09T01:47:17;99573.03;;;16.92;100.00
54512;BME280;40419;47.438;19.026;2022-09-09T01:50:10;99577.38;;;16.88;100.00
54512;BME280;40419;47.438;19.026;2022-09-09T01:52:39;99582.34;;;16.91;100.00
54512;BME280;40419;47.438;19.026;2022-09-09T01:55:09;99587.88;;;16.96;100.00
54512;BME280;40419;47.438;19.026;2022-09-09T02:00:45;99578.84;;;16.79;100.00
54512;BME280;40419;47.438;19.026;2022-09-09T02:03:23;99570.81;;;16.72;100.00
54512;BME280;40419;47.438;19.026;2022-09-09T02:06:08;99561.94;;;16.65;100.00
54512;BME280;40419;47.438;19.026;2022-09-09T02:08:50;99560.72;;;16.73;100.00
54512;BME280;40419;47.438;19.026;2022-09-09T02:11:19;99562.44;;;16.79;100.00
54512;BME280;40419;47.438;19.026;2022-09-09T02:14:12;99564.19;;;16.68;100.00
54512;BME280;40419;47.438;19.026;2022-09-09T02:16:47;99565.94;;;16.57;100.00
54512;BME280;40419;47.438;19.026;2022-09-09T02:19:27;99570.59;;;16.57;100.00
54512;BME280;40419;47.438;19.026;2022-09-09T02:22:06;99570.41;;;16.63;100.00
54512;BME280;40419;47.438;19.026;2022-09-09T02:24:37;99578.38;;;16.48;100.00
54512;BME280;40419;47.438;19.026;2022-09-09T02:27:20;99586.41;;;16.55;100.00
54512;BME280;40419;47.438;19.026;2022-09-09T02:29:48;99571.25;;;16.64;100.00
54512;BME280;40419;47.438;19.026;2022-09-09T02:32:21;99576.63;;;16.76;100.00
54512;BME280;40419;47.438;19.026;2022-09-09T02:34:50;99575.38;;;16.66;100.00
54512;BME280;40419;47.438;19.026;2022-09-09T02:37:22;99576.38;;;16.77;100.00
54512;BME280;40419;47.438;19.026;2022-09-09T02:39:52;99586.53;;;16.65;100.00
54512;BME280;40419;47.438;19.026;2022-09-09T02:42:21;99572.38;;;16.68;100.00
54512;BME280;40419;47.438;19.026;2022-09-09T02:44:49;99576.63;;;16.76;100.00
54512;BME280;40419;47.438;19.026;2022-09-09T02:47:36;99578.75;;;16.74;100.00
54512;BME280;40419;47.438;19.026;2022-09-09T02:50:16;99595.91;;;16.69;100.00
54512;BME280;40419;47.438;19.026;2022-09-09T02:53:17;99596.06;;;16.79;100.00
54512;BME280;40419;47.438;19.026;2022-09-09T02:55:49;99594.25;;;16.85;100.00
54512;BME280;40419;47.438;19.026;2022-09-09T02:58:22;99593.34;;;16.79;100.00
54512;BME280;40419;47.438;19.026;2022-09-09T03:01:02;99600.72;;;16.79;100.00
54512;BME280;40419;47.438;19.026;2022-09-09T03:03:29;99591.25;;;16.70;100.00
54512;BME280;40419;47.438;19.026;2022-09-09T03:05:56;99591.94;;;16.77;100.00
54512;BME280;40419;47.438;19.026;2022-09-09T03:08:22;99598.88;;;16.84;100.00
54512;BME280;40419;47.438;19.026;2022-09-09T03:10:48;99591.59;;;16.90;100.00
54512;BME280;40419;47.438;19.026;2022-09-09T03:13:19;99596.88;;;16.80;100.00
54512;BME280;40419;47.438;19.026;2022-09-09T03:15:54;99602.03;;;16.76;100.00
54512;BME280;40419;47.438;19.026;2022-09-09T03:18:22;99605.28;;;16.73;100.00
54512;BME280;40419;47.438;19.026;2022-09-09T03:20:53;99599.97;;;16.66;100.00
54512;BME280;40419;47.438;19.026;2022-09-09T03:23:22;99607.66;;;16.70;100.00
54512;BME280;40419;47.438;19.026;2022-09-09T03:25:49;99596.25;;;16.56;100.00
54512;BME280;40419;47.438;19.026;2022-09-09T03:28:21;99601.78;;;16.44;100.00
54512;BME280;40419;47.438;19.026;2022-09-09T03:30:48;99606.09;;;16.57;100.00
54512;BME280;40419;47.438;19.026;2022-09-09T03:33:14;99594.25;;;16.51;100.00
54512;BME280;40419;47.438;19.026;2022-09-09T03:35:46;99592.13;;;16.53;100.00
54512;BME280;40419;47.438;19.026;2022-09-09T03:38:20;99587.81;;;16.40;100.00
54512;BME280;40419;47.438;19.026;2022-09-09T03:40:49;99600.03;;;16.38;100.00
54512;BME280;40419;47.438;19.026;2022-09-09T03:43:26;99594.25;;;16.51;100.00
54512;BME280;40419;47.438;19.026;2022-09-09T03:45:52;99599.16;;;16.32;100.00
54512;BME280;40419;47.438;19.026;2022-09-09T03:48:19;99601.47;;;16.40;100.00
54512;BME280;40419;47.438;19.026;2022-09-09T03:50:51;99605.50;;;16.38;100.00
54512;BME280;40419;47.438;19.026;2022-09-09T03:53:20;99608.84;;;16.40;100.00
54512;BME280;40419;47.438;19.026;2022-09-09T03:55:51;99614.69;;;16.32;100.00
54512;BME280;40419;47.438;19.026;2022-09-09T03:58:21;99606.25;;;16.33;100.00
54512;BME280;40419;47.438;19.026;2022-09-09T04:03:33;99601.38;;;16.35;100.00
54512;BME280;40419;47.438;19.026;2022-09-09T04:06:03;99610.97;;;16.38;100.00
54512;BME280;40419;47.438;19.026;2022-09-09T04:08:34;99608.16;;;16.33;100.00
54512;BME280;40419;47.438;19.026;2022-09-09T04:11:03;99612.53;;;16.17;100.00
54512;BME280;40419;47.438;19.026;2022-09-09T04:13:35;99607.31;;;16.15;100.00
54512;BME280;40419;47.438;19.026;2022-09-09T04:16:06;99603.03;;;16.19;100.00
54512;BME280;40419;47.438;19.026;2022-09-09T04:18:33;99605.81;;;16.24;100.00
54512;BME280;40419;47.438;19.026;2022-09-09T04:21:02;99605.75;;;16.19;100.00
54512;BME280;40419;47.438;19.026;2022-09-09T04:23:36;99610.81;;;16.27;100.00
54512;BME280;40419;47.438;19.026;2022-09-09T04:26:05;99612.28;;;16.18;100.00
54512;BME280;40419;47.438;19.026;2022-09-09T04:28:34;99610.81;;;16.27;100.00
54512;BME280;40419;47.438;19.026;2022-09-09T04:31:08;99605.63;;;16.43;100.00
54512;BME280;40419;47.438;19.026;2022-09-09T04:33:39;99597.75;;;16.46;100.00
54512;BME280;40419;47.438;19.026;2022-09-09T04:36:06;99598.72;;;16.40;100.00
54512;BME280;40419;47.438;19.026;2022-09-09T04:38:34;99599.22;;;16.37;100.00
54512;BME280;40419;47.438;19.026;2022-09-09T04:41:01;99594.75;;;16.48;100.00
54512;BME280;40419;47.438;19.026;2022-09-09T04:43:27;99592.84;;;16.32;100.00
54512;BME280;40419;47.438;19.026;2022-09-09T04:45:57;99593.44;;;16.34;100.00
54512;BME280;40419;47.438;19.026;2022-09-09T04:48:24;99591.72;;;16.44;100.00
54512;BME280;40419;47.438;19.026;2022-09-09T04:51:16;99598.91;;;16.34;100.00
54512;BME280;40419;47.438;19.026;2022-09-09T04:53:47;99589.78;;;16.45;100.00
54512;BME280;40419;47.438;19.026;2022-09-09T04:56:17;99588.78;;;16.51;100.00
54512;BME280;40419;47.438;19.026;2022-09-09T04:58:56;99587.56;;;16.42;100.00
54512;BME280;40419;47.438;19.026;2022-09-09T05:01:29;99598.16;;;16.38;100.00
54512;BME280;40419;47.438;19.026;2022-09-09T05:04:02;99607.69;;;16.36;100.00
54512;BME280;40419;47.438;19.026;2022-09-09T05:06:28;99605.13;;;16.46;100.00
54512;BME280;40419;47.438;19.026;2022-09-09T05:08:58;99610.66;;;16.51;100.00
54512;BME280;40419;47.438;19.026;2022-09-09T05:11:29;99607.50;;;16.42;100.00
54512;BME280;40419;47.438;19.026;2022-09-09T05:14:04;99611.56;;;16.40;100.00
54512;BME280;40419;47.438;19.026;2022-09-09T05:16:34;99605.50;;;16.38;100.00
54512;BME280;40419;47.438;19.026;2022-09-09T05:19:05;99617.22;;;16.50;100.00
54512;BME280;40419;47.438;19.026;2022-09-09T05:21:42;99618.97;;;16.56;100.00
54512;BME280;40419;47.438;19.026;2022-09-09T05:24:11;99614.63;;;16.60;100.00
54512;BME280;40419;47.438;19.026;2022-09-09T05:26:36;99612.81;;;16.66;100.00
54512;BME280;40419;47.438;19.026;2022-09-09T05:29:07;99609.00;;;16.84;100.00
54512;BME280;40419;47.438;19.026;2022-09-09T05:31:38;99612.69;;;17.12;100.00
54512;BME280;40419;47.438;19.026;2022-09-09T05:34:11;99618.41;;;17.27;100.00
54512;BME280;40419;47.438;19.026;2022-09-09T05:36:39;99625.84;;;17.32;100.00
54512;BME280;40419;47.438;19.026;2022-09-09T05:39:05;99632.84;;;17.45;100.00
54512;BME280;40419;47.438;19.026;2022-09-09T05:41:32;99631.00;;;17.50;100.00
54512;BME280;40419;47.438;19.026;2022-09-09T05:44:03;99630.78;;;17.57;100.00
54512;BME280;40419;47.438;19.026;2022-09-09T05:46:39;99626.09;;;17.52;100.00
54512;BME280;40419;47.438;19.026;2022-09-09T05:49:05;99624.94;;;17.70;100.00
54512;BME280;40419;47.438;19.026;2022-09-09T05:51:34;99632.16;;;17.54;100.00
54512;BME280;40419;47.438;19.026;2022-09-09T05:54:07;99643.25;;;17.65;100.00
54512;BME280;40419;47.438;19.026;2022-09-09T05:56:42;99636.41;;;17.67;100.00
54512;BME280;40419;47.438;19.026;2022-09-09T05:59:11;99624.44;;;17.96;100.00
54512;BME280;40419;47.438;19.026;2022-09-09T06:01:38;99630.03;;;18.06;100.00
54512;BME280;40419;47.438;19.026;2022-09-09T06:04:07;99628.94;;;18.07;100.00
54512;BME280;40419;47.438;19.026;2022-09-09T06:06:38;99632.38;;;18.19;100.00
54512;BME280;40419;47.438;19.026;2022-09-09T06:09:10;99633.22;;;18.25;100.00
54512;BME280;40419;47.438;19.026;2022-09-09T06:11:41;99631.63;;;18.29;100.00
54512;BME280;40419;47.438;19.026;2022-09-09T06:14:10;99624.16;;;18.19;100.00
54512;BME280;40419;47.438;19.026;2022-09-09T06:16:40;99631.69;;;18.34;100.00
54512;BME280;40419;47.438;19.026;2022-09-09T06:19:15;99629.25;;;18.38;100.00
54512;BME280;40419;47.438;19.026;2022-09-09T06:21:44;99632.69;;;18.28;100.00
54512;BME280;40419;47.438;19.026;2022-09-09T06:24:13;99631.84;;;18.22;100.00
54512;BME280;40419;47.438;19.026;2022-09-09T06:26:43;99639.66;;;18.36;100.00
54512;BME280;40419;47.438;19.026;2022-09-09T06:29:16;99642.03;;;18.59;100.00
54512;BME280;40419;47.438;19.026;2022-09-09T06:31:41;99639.19;;;18.82;100.00
54512;BME280;40419;47.438;19.026;2022-09-09T06:34:20;99633.44;;;18.83;100.00
54512;BME280;40419;47.438;19.026;2022-09-09T06:36:49;99635.94;;;18.85;100.00
54512;BME280;40419;47.438;19.026;2022-09-09T06:39:15;99630.25;;;18.91;100.00
54512;BME280;40419;47.438;19.026;2022-09-09T06:41:44;99635.81;;;18.69;100.00
54512;BME280;40419;47.438;19.026;2022-09-09T06:44:41;99617.25;;;18.82;100.00
54512;BME280;40419;47.438;19.026;2022-09-09T06:47:16;99627.47;;;18.86;100.00
54512;BME280;40419;47.438;19.026;2022-09-09T06:49:45;99623.66;;;18.87;100.00
54512;BME280;40419;47.438;19.026;2022-09-09T06:52:15;99627.75;;;18.90;100.00
54512;BME280;40419;47.438;19.026;2022-09-09T06:54:43;99633.81;;;18.92;100.00
54512;BME280;40419;47.438;19.026;2022-09-09T06:57:09;99636.31;;;18.99;100.00
54512;BME280;40419;47.438;19.026;2022-09-09T06:59:35;99645.69;;;19.03;100.00
54512;BME280;40419;47.438;19.026;2022-09-09T07:02:03;99652.06;;;19.13;100.00
54512;BME280;40419;47.438;19.026;2022-09-09T07:04:29;99647.66;;;19.12;100.00
54512;BME280;40419;47.438;19.026;2022-09-09T07:06:55;99651.19;;;19.03;100.00
54512;BME280;40419;47.438;19.026;2022-09-09T07:09:24;99640.88;;;18.83;100.00
54512;BME280;40419;47.438;19.026;2022-09-09T07:11:53;99646.78;;;18.69;100.00
54512;BME280;40419;47.438;19.026;2022-09-09T07:14:20;99658.13;;;18.51;100.00
54512;BME280;40419;47.438;19.026;2022-09-09T07:16:56;99658.38;;;18.49;100.00
54512;BME280;40419;47.438;19.026;2022-09-09T07:19:25;99658.84;;;18.68;100.00
54512;BME280;40419;47.438;19.026;2022-09-09T07:21:52;99656.81;;;18.86;100.00
54512;BME280;40419;47.438;19.026;2022-09-09T07:24:21;99653.91;;;19.03;100.00
54512;BME280;40419;47.438;19.026;2022-09-09T07:26:50;99653.47;;;19.21;100.00
54512;BME280;40419;47.438;19.026;2022-09-09T07:29:20;99659.56;;;19.28;100.00
54512;BME280;40419;47.438;19.026;2022-09-09T07:31:49;99652.34;;;19.12;100.00
54512;BME280;40419;47.438;19.026;2022-09-09T07:34:20;99659.84;;;19.32;100.00
54512;BME280;40419;47.438;19.026;2022-09-09T07:36:46;99657.44;;;19.36;100.00
54512;BME280;40419;47.438;19.026;2022-09-09T07:39:15;99657.22;;;19.53;97.15
54512;BME280;40419;47.438;19.026;2022-09-09T07:41:49;99664.59;;;19.42;98.74
54512;BME280;40419;47.438;19.026;2022-09-09T07:44:21;99666.00;;;19.55;96.98
54512;BME280;40419;47.438;19.026;2022-09-09T07:46:53;99658.91;;;19.59;96.78
54512;BME280;40419;47.438;19.026;2022-09-09T07:49:27;99667.69;;;19.56;97.63
54512;BME280;40419;47.438;19.026;2022-09-09T07:51:55;99671.00;;;19.63;93.32
54512;BME280;40419;47.438;19.026;2022-09-09T07:54:23;99675.97;;;19.71;94.33
54512;BME280;40419;47.438;19.026;2022-09-09T07:56:51;99672.44;;;19.76;94.60
54512;BME280;40419;47.438;19.026;2022-09-09T07:59:23;99662.59;;;19.85;90.94
54512;BME280;40419;47.438;19.026;2022-09-09T08:01:54;99658.00;;;20.01;90.03
54512;BME280;40419;47.438;19.026;2022-09-09T08:04:27;99672.84;;;20.10;89.75
54512;BME280;40419;47.438;19.026;2022-09-09T08:06:59;99668.44;;;20.09;86.79
54512;BME280;40419;47.438;19.026;2022-09-09T08:09:29;99655.59;;;20.20;91.59
54512;BME280;40419;47.438;19.026;2022-09-09T08:12:06;99670.13;;;20.21;90.66
54512;BME280;40419;47.438;19.026;2022-09-09T08:14:39;99662.13;;;20.14;90.24
54512;BME280;40419;47.438;19.026;2022-09-09T08:17:06;99662.72;;;20.31;90.41
54512;BME280;40419;47.438;19.026;2022-09-09T08:19:34;99663.28;;;20.33;92.46
54512;BME280;40419;47.438;19.026;2022-09-09T08:22:02;99659.47;;;20.45;90.63
54512;BME280;40419;47.438;19.026;2022-09-09T08:24:29;99658.34;;;20.35;89.92
54512;BME280;40419;47.438;19.026;2022-09-09T08:26:58;99661.94;;;20.41;82.81
54512;BME280;40419;47.438;19.026;2022-09-09T08:29:26;99658.91;;;20.53;81.92
54512;BME280;40419;47.438;19.026;2022-09-09T08:31:58;99655.13;;;20.75;77.26
54512;BME280;40419;47.438;19.026;2022-09-09T08:34:28;99662.81;;;20.67;73.39
54512;BME280;40419;47.438;19.026;2022-09-09T08:37:00;99665.53;;;20.73;76.46
54512;BME280;40419;47.438;19.026;2022-09-09T08:39:33;99663.91;;;20.87;75.96
54512;BME280;40419;47.438;19.026;2022-09-09T08:52:29;99669.31;;;21.43;76.52
54512;BME280;40419;47.438;19.026;2022-09-09T08:55:03;99663.25;;;21.52;71.18
54512;BME280;40419;47.438;19.026;2022-09-09T08:57:34;99668.50;;;21.38;71.30
54512;BME280;40419;47.438;19.026;2022-09-09T09:00:02;99659.38;;;21.48;72.00
54512;BME280;40419;47.438;19.026;2022-09-09T09:02:48;99658.00;;;21.55;73.75
54512;BME280;40419;47.438;19.026;2022-09-09T09:05:27;99661.00;;;21.64;76.10
54512;BME280;40419;47.438;19.026;2022-09-09T09:08:25;99658.22;;;21.69;72.53
54512;BME280;40419;47.438;19.026;2022-09-09T09:10:56;99659.34;;;21.68;71.02
54512;BME280;40419;47.438;19.026;2022-09-09T09:16:12;99667.09;;;21.61;68.58
54512;BME280;40419;47.438;19.026;2022-09-09T09:18:40;99661.31;;;21.57;70.69
54512;BME280;40419;47.438;19.026;2022-09-09T09:23:48;99648.63;;;21.67;67.23
54512;BME280;40419;47.438;19.026;2022-09-09T09:26:18;99647.13;;;21.90;70.24
54512;BME280;40419;47.438;19.026;2022-09-09T09:28:54;99643.25;;;21.91;65.25
54512;BME280;40419;47.438;19.026;2022-09-09T09:31:23;99639.94;;;21.94;66.29
54512;BME280;40419;47.438;19.026;2022-09-09T09:33:54;99637.53;;;21.82;64.74
54512;BME280;40419;47.438;19.026;2022-09-09T09:36:37;99642.41;;;21.95;69.12
54512;BME280;40419;47.438;19.026;2022-09-09T09:39:06;99642.69;;;21.94;72.06
54512;BME280;40419;47.438;19.026;2022-09-09T09:41:42;99641.78;;;22.09;70.84
54512;BME280;40419;47.438;19.026;2022-09-09T09:44:29;99648.34;;;22.18;66.71
54512;BME280;40419;47.438;19.026;2022-09-09T09:47:14;99649.44;;;22.17;66.12
54512;BME280;40419;47.438;19.026;2022-09-09T09:49:57;99640.28;;;22.32;65.73
54512;BME280;40419;47.438;19.026;2022-09-09T09:52:30;99644.59;;;22.48;66.15
54512;BME280;40419;47.438;19.026;2022-09-09T09:55:03;99646.69;;;22.62;66.34
54512;BME280;40419;47.438;19.026;2022-09-09T09:57:32;99654.19;;;22.56;66.89
54512;BME280;40419;47.438;19.026;2022-09-09T10:02:50;99640.84;;;22.69;66.27
54512;BME280;40419;47.438;19.026;2022-09-09T10:05:35;99641.47;;;22.60;65.84
54512;BME280;40419;47.438;19.026;2022-09-09T10:08:15;99629.06;;;22.87;65.39
54512;BME280;40419;47.438;19.026;2022-09-09T10:16:17;99621.63;;;23.17;62.91
54512;BME280;40419;47.438;19.026;2022-09-09T10:19:34;99627.41;;;23.21;60.60
54512;BME280;40419;47.438;19.026;2022-09-09T10:22:02;99629.59;;;23.24;59.65
54512;BME280;40419;47.438;19.026;2022-09-09T10:35:50;99627.94;;;23.23;54.43
54512;BME280;40419;47.438;19.026;2022-09-09T10:38:18;99630.91;;;23.26;54.08
54512;BME280;40419;47.438;19.026;2022-09-09T10:52:05;99631.97;;;23.30;46.44
54512;BME280;40419;47.438;19.026;2022-09-09T10:57:47;99626.88;;;23.43;46.68
54512;BME280;40419;47.438;19.026;2022-09-09T11:00:20;99632.75;;;23.36;44.76
54512;BME280;40419;47.438;19.026;2022-09-09T11:02:57;99616.88;;;23.47;43.42
54512;BME280;40419;47.438;19.026;2022-09-09T11:05:42;99614.63;;;23.49;44.79
54512;BME280;40419;47.438;19.026;2022-09-09T11:08:19;99613.81;;;23.48;42.85
54512;BME280;40419;47.438;19.026;2022-09-09T11:13:34;99616.25;;;23.74;43.13
54512;BME280;40419;47.438;19.026;2022-09-09T11:16:29;99614.56;;;23.78;41.35
54512;BME280;40419;47.438;19.026;2022-09-09T11:19:03;99614.63;;;23.49;41.69
54512;BME280;40419;47.438;19.026;2022-09-09T11:21:36;99612.56;;;23.35;45.84
54512;BME280;40419;47.438;19.026;2022-09-09T11:24:10;99623.81;;;23.44;45.11
54512;BME280;40419;47.438;19.026;2022-09-09T11:26:48;99614.41;;;23.45;45.53
54512;BME280;40419;47.438;19.026;2022-09-09T11:29:39;99613.16;;;23.57;45.19
54512;BME280;40419;47.438;19.026;2022-09-09T11:32:39;99617.03;;;23.80;44.29
54512;BME280;40419;47.438;19.026;2022-09-09T11:40:39;99617.97;;;23.70;43.77
54512;BME280;40419;47.438;19.026;2022-09-09T11:43:38;99609.28;;;23.58;46.48
54512;BME280;40419;47.438;19.026;2022-09-09T11:46:11;99607.00;;;23.65;45.99
54512;BME280;40419;47.438;19.026;2022-09-09T11:48:40;99608.19;;;23.78;48.06
54512;BME280;40419;47.438;19.026;2022-09-09T11:51:29;99609.66;;;23.70;44.13
54512;BME280;40419;47.438;19.026;2022-09-09T11:53:56;99599.16;;;23.72;46.48
54512;BME280;40419;47.438;19.026;2022-09-09T11:56:32;99602.78;;;23.92;44.58
54512;BME280;40419;47.438;19.026;2022-09-09T11:59:06;99596.38;;;23.96;42.45
54512;BME280;40419;47.438;19.026;2022-09-09T12:01:38;99598.19;;;23.82;45.59
54512;BME280;40419;47.438;19.026;2022-09-09T12:09:50;99610.66;;;23.60;45.39
54512;BME280;40419;47.438;19.026;2022-09-09T12:12:40;99618.53;;;23.48;50.26
54512;BME280;40419;47.438;19.026;2022-09-09T12:17:47;99613.31;;;23.46;52.65
54512;BME280;40419;47.438;19.026;2022-09-09T12:20:30;99619.44;;;23.86;52.91
54512;BME280;40419;47.438;19.026;2022-09-09T12:28:52;99605.91;;;23.85;53.89
54512;BME280;40419;47.438;19.026;2022-09-09T12:31:25;99601.22;;;23.85;52.02
54512;BME280;40419;47.438;19.026;2022-09-09T12:34:06;99586.28;;;24.05;49.68
54512;BME280;40419;47.438;19.026;2022-09-09T12:36:35;99589.19;;;23.95;51.08
54512;BME280;40419;47.438;19.026;2022-09-09T12:39:21;99586.34;;;24.00;49.87
54512;BME280;40419;47.438;19.026;2022-09-09T12:41:52;99584.03;;;23.88;50.79
54512;BME280;40419;47.438;19.026;2022-09-09T12:44:22;99585.19;;;23.82;51.84
54512;BME280;40419;47.438;19.026;2022-09-09T12:46:48;99574.56;;;23.95;53.03
54512;BME280;40419;47.438;19.026;2022-09-09T12:49:33;99584.91;;;23.84;50.74
54512;BME280;40419;47.438;19.026;2022-09-09T12:52:07;99580.72;;;23.67;51.24
54512;BME280;40419;47.438;19.026;2022-09-09T12:54:36;99578.28;;;23.42;51.36
54512;BME280;40419;47.438;19.026;2022-09-09T12:57:05;99573.28;;;23.44;52.36
54512;BME280;40419;47.438;19.026;2022-09-09T12:59:40;99581.09;;;23.36;53.60
54512;BME280;40419;47.438;19.026;2022-09-09T13:02:26;99572.47;;;23.19;54.92
54512;BME280;40419;47.438;19.026;2022-09-09T13:04:52;99560.34;;;23.39;55.75
54512;BME280;40419;47.438;19.026;2022-09-09T13:07:21;99553.63;;;23.45;53.88
54512;BME280;40419;47.438;19.026;2022-09-09T13:09:48;99551.06;;;23.30;52.27
54512;BME280;40419;47.438;19.026;2022-09-09T13:12:16;99553.75;;;23.35;53.37
54512;BME280;40419;47.438;19.026;2022-09-09T13:14:48;99554.44;;;23.46;51.32
54512;BME280;40419;47.438;19.026;2022-09-09T13:17:28;99546.16;;;23.46;51.77
54512;BME280;40419;47.438;19.026;2022-09-09T13:19:55;99549.25;;;23.63;50.53
54512;BME280;40419;47.438;19.026;2022-09-09T13:22:34;99541.91;;;23.53;50.43
54512;BME280;40419;47.438;19.026;2022-09-09T13:25:05;99539.84;;;23.64;49.82
54512;BME280;40419;47.438;19.026;2022-09-09T13:27:38;99551.50;;;23.61;52.68
54512;BME280;40419;47.438;19.026;2022-09-09T13:30:39;99545.22;;;23.75;51.51
54512;BME280;40419;47.438;19.026;2022-09-09T13:35:49;99540.66;;;23.65;48.87
54512;BME280;40419;47.438;19.026;2022-09-09T13:38:16;99533.72;;;23.67;48.45
54512;BME280;40419;47.438;19.026;2022-09-09T13:43:28;99533.50;;;23.45;46.50
54512;BME280;40419;47.438;19.026;2022-09-09T13:46:05;99538.13;;;23.49;49.26
54512;BME280;40419;47.438;19.026;2022-09-09T13:48:31;99530.03;;;23.53;46.06
54512;BME280;40419;47.438;19.026;2022-09-09T13:51:03;99526.84;;;23.65;45.34
54512;BME280;40419;47.438;19.026;2022-09-09T13:53:32;99525.81;;;23.80;45.05
54512;BME280;40419;47.438;19.026;2022-09-09T13:56:01;99518.22;;;23.91;43.93
54512;BME280;40419;47.438;19.026;2022-09-09T13:58:28;99517.22;;;24.00;46.42
54512;BME280;40419;47.438;19.026;2022-09-09T14:00:54;99521.44;;;23.98;46.53
54512;BME280;40419;47.438;19.026;2022-09-09T14:03:20;99506.41;;;23.85;47.30
54512;BME280;40419;47.438;19.026;2022-09-09T14:05:46;99502.72;;;23.89;46.73
54512;BME280;40419;47.438;19.026;2022-09-09T14:08:30;99500.28;;;23.69;46.87
54512;BME280;40419;47.438;19.026;2022-09-09T14:11:03;99503.69;;;23.42;47.46
54512;BME280;40419;47.438;19.026;2022-09-09T14:13:32;99495.84;;;23.30;49.46
54512;BME280;40419;47.438;19.026;2022-09-09T14:18:27;99502.63;;;23.38;49.65
54512;BME280;40419;47.438;19.026;2022-09-09T14:20:53;99502.97;;;23.31;49.47
54512;BME280;40419;47.438;19.026;2022-09-09T14:23:19;99504.13;;;23.30;49.75
54512;BME280;40419;47.438;19.026;2022-09-09T14:25:49;99506.34;;;23.28;49.40
54512;BME280;40419;47.438;19.026;2022-09-09T14:28:15;99497.75;;;23.29;49.68
54512;BME280;40419;47.438;19.026;2022-09-09T14:30:44;99501.72;;;23.23;50.54
54512;BME280;40419;47.438;19.026;2022-09-09T14:33:15;99498.91;;;23.28;48.39
54512;BME280;40419;47.438;19.026;2022-09-09T14:35:42;99498.22;;;23.17;50.56
54512;BME280;40419;47.438;19.026;2022-09-09T14:38:10;99493.97;;;23.25;49.73
54512;BME280;40419;47.438;19.026;2022-09-09T14:40:39;99488.19;;;23.22;49.88
54512;BME280;40419;47.438;19.026;2022-09-09T14:43:05;99493.53;;;23.13;51.75
54512;BME280;40419;47.438;19.026;2022-09-09T14:45:35;99498.81;;;23.33;49.18
54512;BME280;40419;47.438;19.026;2022-09-09T14:48:03;99497.97;;;23.14;48.90
54512;BME280;40419;47.438;19.026;2022-09-09T14:50:29;99492.00;;;23.01;51.18
54512;BME280;40419;47.438;19.026;2022-09-09T14:52:57;99490.44;;;22.95;52.24
54512;BME280;40419;47.438;19.026;2022-09-09T14:55:27;99495.72;;;22.92;51.60
54512;BME280;40419;47.438;19.026;2022-09-09T14:57:56;99490.78;;;23.13;52.13
54512;BME280;40419;47.438;19.026;2022-09-09T15:00:26;99493.13;;;23.25;49.27
54512;BME280;40419;47.438;19.026;2022-09-09T15:02:53;99502.19;;;23.30;49.98
54512;BME280;40419;47.438;19.026;2022-09-09T15:05:24;99493.28;;;23.14;52.82
54512;BME280;40419;47.438;19.026;2022-09-09T15:07:52;99492.22;;;23.10;51.17